Time,TemperatureF,DewpointF,PressureIn,WindDirection,WindDirectionDegrees,WindSpeedMPH,WindSpeedGustMPH,Humidity,HourlyPrecipIn,Conditions,Clouds,dailyrainin,SoftwareType,DateUTC
2013-07-21 00:00:00,64.0,60.0,29.88,WSW,241,7.0,-999.0,88,-99.99,,,-99.99,,2013-07-21 04:00:00,
2013-07-21 00:01:00,64.0,60.0,29.87,WSW,246,9.0,-999.0,87,-99.99,,,-99.99,,2013-07-21 04:01:00,
2013-07-21 00:11:00,64.0,60.0,29.87,WSW,246,9.0,-999.0,87,-99.99,,,-99.99,,2013-07-21 04:11:00,
2013-07-21 00:22:00,64.0,60.0,29.87,WSW,256,8.0,-999.0,88,-99.99,,,-99.99,,2013-07-21 04:22:00,
2013-07-21 00:32:00,64.0,60.0,29.87,SW,230,8.0,-999.0,88,-99.99,,,-99.99,,2013-07-21 04:32:00,
2013-07-21 00:43:00,64.0,60.0,29.87,SW,230,8.0,-999.0,88,-99.99,,,-99.99,,2013-07-21 04:43:00,
2013-07-21 00:53:00,63.0,59.0,29.88,SW,224,8.0,-999.0,88,-99.99,,,-99.99,,2013-07-21 04:53:00,
2013-07-21 01:02:00,63.0,60.0,29.88,SW,227,8.0,-999.0,89,-99.99,,,-99.99,,2013-07-21 05:02:00,
2013-07-21 01:11:00,63.0,60.0,29.88,SW,227,8.0,-999.0,89,-99.99,,,-99.99,,2013-07-21 05:11:00,
2013-07-21 01:22:00,62.0,59.0,29.88,West,263,6.0,-999.0,91,-99.99,,,-99.99,,2013-07-21 05:22:00,
2013-07-21 01:32:00,62.0,59.0,29.88,SW,228,8.0,-999.0,91,-99.99,,,-99.99,,2013-07-21 05:32:00,
2013-07-21 01:42:00,62.0,59.0,29.88,SW,228,8.0,-999.0,91,-99.99,,,-99.99,,2013-07-21 05:42:00,
2013-07-21 01:52:00,62.0,60.0,29.88,WSW,257,8.0,-999.0,92,-99.99,,,-99.99,,2013-07-21 05:52:00,
2013-07-21 02:01:00,62.0,60.0,29.88,West,261,7.0,-999.0,92,-99.99,,,-99.99,,2013-07-21 06:01:00,
2013-07-21 02:11:00,62.0,60.0,29.88,West,261,7.0,-999.0,92,-99.99,,,-99.99,,2013-07-21 06:11:00,
2013-07-21 02:22:00,62.0,60.0,29.88,SW,230,8.0,-999.0,92,-99.99,,,-99.99,,2013-07-21 06:22:00,
2013-07-21 02:32:00,62.0,60.0,29.88,SW,232,9.0,-999.0,92,-99.99,,,-99.99,,2013-07-21 06:32:00,
2013-07-21 02:43:00,62.0,60.0,29.88,SW,232,9.0,-999.0,92,-99.99,,,-99.99,,2013-07-21 06:43:00,
2013-07-21 02:53:00,62.0,60.0,29.88,WSW,246,9.0,-999.0,92,-99.99,,,-99.99,,2013-07-21 06:53:00,
2013-07-21 03:01:00,62.0,60.0,29.88,West,262,8.0,-999.0,92,-99.99,,,-99.99,,2013-07-21 07:01:00,
2013-07-21 03:11:00,62.0,60.0,29.88,West,262,8.0,-999.0,92,-99.99,,,-99.99,,2013-07-21 07:11:00,
2013-07-21 03:22:00,62.0,60.0,29.88,SW,231,8.0,-999.0,92,-99.99,,,-99.99,,2013-07-21 07:22:00,
2013-07-21 03:43:00,62.0,60.0,29.88,WSW,257,6.0,-999.0,93,-99.99,,,-99.99,,2013-07-21 07:43:00,
2013-07-21 03:53:00,62.0,60.0,29.88,West,260,5.0,-999.0,93,-99.99,,,-99.99,,2013-07-21 07:53:00,
2013-07-21 04:02:00,61.0,59.0,29.87,WSW,244,5.0,-999.0,93,-99.99,,,-99.99,,2013-07-21 08:02:00,
2013-07-21 04:11:00,61.0,59.0,29.87,WSW,244,5.0,-999.0,93,-99.99,,,-99.99,,2013-07-21 08:11:00,
2013-07-21 04:22:00,61.0,59.0,29.87,SW,234,6.0,-999.0,93,-99.99,,,-99.99,,2013-07-21 08:22:00,
2013-07-21 04:33:00,61.0,59.0,29.87,SW,232,6.0,-999.0,93,-99.99,,,-99.99,,2013-07-21 08:33:00,
2013-07-21 04:43:00,61.0,59.0,29.87,SW,232,6.0,-999.0,93,-99.99,,,-99.99,,2013-07-21 08:43:00,
2013-07-21 04:52:00,61.0,59.0,29.87,West,260,5.0,-999.0,93,-99.99,,,-99.99,,2013-07-21 08:52:00,
2013-07-21 05:02:00,61.0,58.0,29.87,West,271,6.0,-999.0,91,-99.99,,,-99.99,,2013-07-21 09:02:00,
2013-07-21 05:12:00,61.0,58.0,29.87,West,271,6.0,-999.0,91,-99.99,,,-99.99,,2013-07-21 09:12:00,
2013-07-21 05:22:00,61.0,58.0,29.88,West,263,4.0,-999.0,91,-99.99,,,-99.99,,2013-07-21 09:22:00,
2013-07-21 05:32:00,61.0,57.0,29.88,WSW,252,6.0,-999.0,88,-99.99,,,-99.99,,2013-07-21 09:32:00,
2013-07-21 05:42:00,61.0,57.0,29.88,WSW,252,6.0,-999.0,88,-99.99,,,-99.99,,2013-07-21 09:42:00,
2013-07-21 05:52:00,61.0,57.0,29.88,SW,232,6.0,-999.0,86,-99.99,,,-99.99,,2013-07-21 09:52:00,
2013-07-21 06:02:00,61.0,57.0,29.88,WSW,240,4.0,-999.0,86,-99.99,,,-99.99,,2013-07-21 10:02:00,
2013-07-21 06:11:00,61.0,57.0,29.88,WSW,240,4.0,-999.0,86,-99.99,,,-99.99,,2013-07-21 10:11:00,
2013-07-21 06:22:00,61.0,55.0,29.88,SW,232,5.0,-999.0,81,-99.99,,,-99.99,,2013-07-21 10:22:00,
2013-07-21 06:32:00,61.0,55.0,29.88,WSW,244,4.0,-999.0,80,-99.99,,,-99.99,,2013-07-21 10:32:00,
2013-07-21 06:43:00,61.0,55.0,29.88,WSW,244,4.0,-999.0,80,-99.99,,,-99.99,,2013-07-21 10:43:00,
2013-07-21 06:52:00,61.0,54.0,29.89,WSW,244,3.0,-999.0,78,-99.99,,,-99.99,,2013-07-21 10:52:00,
2013-07-21 07:02:00,61.0,54.0,29.90,WSW,246,3.0,-999.0,79,-99.99,,,-99.99,,2013-07-21 11:02:00,
2013-07-21 07:12:00,61.0,54.0,29.90,WSW,246,3.0,-999.0,79,-99.99,,,-99.99,,2013-07-21 11:12:00,
2013-07-21 07:22:00,61.0,55.0,29.90,West,261,6.0,-999.0,80,-99.99,,,-99.99,,2013-07-21 11:22:00,
2013-07-21 07:33:00,61.0,56.0,29.89,WSW,258,6.0,-999.0,84,-99.99,,,-99.99,,2013-07-21 11:33:00,
2013-07-21 07:43:00,61.0,56.0,29.89,WSW,258,6.0,-999.0,84,-99.99,,,-99.99,,2013-07-21 11:43:00,
2013-07-21 07:52:00,61.0,56.0,29.90,WSW,249,6.0,-999.0,85,-99.99,,,-99.99,,2013-07-21 11:52:00,
2013-07-21 08:01:00,62.0,57.0,29.89,WSW,256,6.0,-999.0,84,-99.99,,,-99.99,,2013-07-21 12:01:00,
2013-07-21 08:11:00,62.0,57.0,29.89,WSW,256,6.0,-999.0,84,-99.99,,,-99.99,,2013-07-21 12:11:00,
2013-07-21 08:22:00,62.0,56.0,29.90,SW,223,6.0,-999.0,80,-99.99,,,-99.99,,2013-07-21 12:22:00,
2013-07-21 08:32:00,62.0,58.0,29.90,West,268,5.0,-999.0,86,-99.99,,,-99.99,,2013-07-21 12:32:00,
2013-07-21 08:43:00,62.0,58.0,29.90,West,268,5.0,-999.0,86,-99.99,,,-99.99,,2013-07-21 12:43:00,
2013-07-21 08:53:00,63.0,57.0,29.90,WSW,252,5.0,-999.0,81,-99.99,,,-99.99,,2013-07-21 12:53:00,
2013-07-21 09:02:00,64.0,56.0,29.90,SW,230,5.0,-999.0,76,-99.99,,,-99.99,,2013-07-21 13:02:00,
2013-07-21 09:12:00,64.0,56.0,29.90,SW,230,5.0,-999.0,76,-99.99,,,-99.99,,2013-07-21 13:12:00,
2013-07-21 09:22:00,65.0,62.0,29.90,WNW,282,5.0,-999.0,91,-99.99,,,-99.99,,2013-07-21 13:22:00,
2013-07-21 09:33:00,66.0,64.0,29.90,SW,233,5.0,-999.0,92,-99.99,,,-99.99,,2013-07-21 13:33:00,
2013-07-21 09:43:00,66.0,64.0,29.90,SW,233,5.0,-999.0,92,-99.99,,,-99.99,,2013-07-21 13:43:00,
2013-07-21 09:53:00,65.0,63.0,29.90,WSW,245,5.0,-999.0,93,-99.99,,,-99.99,,2013-07-21 13:53:00,
2013-07-21 10:01:00,65.0,63.0,29.91,WSW,253,5.0,-999.0,92,-99.99,,,-99.99,,2013-07-21 14:01:00,
2013-07-21 10:12:00,65.0,63.0,29.91,WSW,253,5.0,-999.0,92,-99.99,,,-99.99,,2013-07-21 14:12:00,
2013-07-21 10:23:00,66.0,64.0,29.90,WSW,246,5.0,-999.0,93,-99.99,,,-99.99,,2013-07-21 14:23:00,
2013-07-21 10:32:00,69.0,66.0,29.90,WSW,250,5.0,-999.0,89,-99.99,,,-99.99,,2013-07-21 14:32:00,
2013-07-21 10:43:00,69.0,66.0,29.90,WSW,250,5.0,-999.0,89,-99.99,,,-99.99,,2013-07-21 14:43:00,
2013-07-21 10:53:00,70.0,66.0,29.90,WSW,244,5.0,-999.0,87,-99.99,,,-99.99,,2013-07-21 14:53:00,
2013-07-21 11:02:00,70.0,65.0,29.89,West,277,4.0,-999.0,83,-99.99,,,-99.99,,2013-07-21 15:02:00,
2013-07-21 11:11:00,70.0,65.0,29.89,West,277,4.0,-999.0,83,-99.99,,,-99.99,,2013-07-21 15:11:00,
2013-07-21 11:22:00,70.0,65.0,29.90,West,267,5.0,-999.0,84,-99.99,,,-99.99,,2013-07-21 15:22:00,
2013-07-21 11:32:00,68.0,65.0,29.90,WSW,242,2.0,-999.0,90,-99.99,,,-99.99,,2013-07-21 15:32:00,
2013-07-21 11:43:00,68.0,65.0,29.90,WSW,242,2.0,-999.0,90,-99.99,,,-99.99,,2013-07-21 15:43:00,
2013-07-21 11:53:00,66.0,64.0,29.91,WSW,238,3.0,-999.0,92,-99.99,,,-99.99,,2013-07-21 15:53:00,
2013-07-21 12:01:00,64.0,61.0,29.92,SW,233,6.0,-999.0,90,-99.99,,,-99.99,,2013-07-21 16:01:00,
2013-07-21 12:11:00,64.0,61.0,29.92,SW,233,6.0,-999.0,90,-99.99,,,-99.99,,2013-07-21 16:11:00,
2013-07-21 12:22:00,62.0,58.0,29.93,WSW,244,10.0,-999.0,88,-99.99,,,-99.99,,2013-07-21 16:22:00,
2013-07-21 12:32:00,60.0,56.0,29.95,WSW,258,11.0,-999.0,88,-99.99,,,-99.99,,2013-07-21 16:32:00,
2013-07-21 12:43:00,60.0,56.0,29.95,WSW,258,11.0,-999.0,88,-99.99,,,-99.99,,2013-07-21 16:43:00,
2013-07-21 12:52:00,59.0,54.0,29.95,SW,225,10.0,-999.0,82,-99.99,,,-99.99,,2013-07-21 16:52:00,
2013-07-21 13:11:00,59.0,52.0,29.95,SW,230,8.0,-999.0,79,-99.99,,,-99.99,,2013-07-21 17:11:00,
2013-07-21 13:22:00,59.0,53.0,29.94,West,267,4.0,-999.0,80,-99.99,,,-99.99,,2013-07-21 17:22:00,
2013-07-21 13:33:00,60.0,52.0,29.93,WSW,249,6.0,-999.0,76,-99.99,,,-99.99,,2013-07-21 17:33:00,
2013-07-21 13:43:00,60.0,52.0,29.93,WSW,249,6.0,-999.0,76,-99.99,,,-99.99,,2013-07-21 17:43:00,
2013-07-21 13:53:00,61.0,53.0,29.93,WSW,252,8.0,-999.0,74,-99.99,,,-99.99,,2013-07-21 17:53:00,
2013-07-21 14:01:00,61.0,54.0,29.92,WSW,252,7.0,-999.0,78,-99.99,,,-99.99,,2013-07-21 18:01:00,
2013-07-21 14:11:00,61.0,54.0,29.92,WSW,252,7.0,-999.0,78,-99.99,,,-99.99,,2013-07-21 18:11:00,
2013-07-21 14:22:00,64.0,62.0,29.91,WSW,244,7.0,-999.0,93,-99.99,,,-99.99,,2013-07-21 18:22:00,
2013-07-21 14:32:00,68.0,63.0,29.91,WSW,249,7.0,-999.0,85,-99.99,,,-99.99,,2013-07-21 18:32:00,
2013-07-21 14:43:00,68.0,63.0,29.91,WSW,249,7.0,-999.0,85,-99.99,,,-99.99,,2013-07-21 18:43:00,
2013-07-21 14:52:00,68.0,63.0,29.91,West,271,6.0,-999.0,83,-99.99,,,-99.99,,2013-07-21 18:52:00,
2013-07-21 15:01:00,69.0,63.0,29.90,West,265,6.0,-999.0,80,-99.99,,,-99.99,,2013-07-21 19:01:00,
2013-07-21 15:11:00,69.0,63.0,29.90,West,265,6.0,-999.0,80,-99.99,,,-99.99,,2013-07-21 19:11:00,
2013-07-21 15:22:00,72.0,62.0,29.89,WSW,247,7.0,-999.0,70,-99.99,,,-99.99,,2013-07-21 19:22:00,
2013-07-21 15:32:00,71.0,62.0,29.88,SSW,211,6.0,-999.0,74,-99.99,,,-99.99,,2013-07-21 19:32:00,
2013-07-21 15:42:00,71.0,62.0,29.88,SSW,211,6.0,-999.0,74,-99.99,,,-99.99,,2013-07-21 19:42:00,
2013-07-21 15:52:00,70.0,63.0,29.88,SW,220,6.0,-999.0,79,-99.99,,,-99.99,,2013-07-21 19:52:00,
2013-07-21 16:02:00,70.0,64.0,29.88,WSW,241,4.0,-999.0,81,-99.99,,,-99.99,,2013-07-21 20:02:00,
2013-07-21 16:12:00,70.0,64.0,29.88,WSW,241,4.0,-999.0,81,-99.99,,,-99.99,,2013-07-21 20:12:00,
2013-07-21 16:22:00,70.0,64.0,29.88,West,262,5.0,-999.0,80,-99.99,,,-99.99,,2013-07-21 20:22:00,
2013-07-21 16:32:00,72.0,64.0,29.88,West,270,3.0,-999.0,76,-99.99,,,-99.99,,2013-07-21 20:32:00,
2013-07-21 16:43:00,72.0,64.0,29.88,West,270,3.0,-999.0,76,-99.99,,,-99.99,,2013-07-21 20:43:00,
2013-07-21 16:52:00,72.0,63.0,29.88,WSW,257,5.0,-999.0,74,-99.99,,,-99.99,,2013-07-21 20:52:00,
2013-07-21 17:01:00,71.0,63.0,29.87,West,276,6.0,-999.0,76,-99.99,,,-99.99,,2013-07-21 21:01:00,
2013-07-21 17:11:00,71.0,63.0,29.87,West,276,6.0,-999.0,76,-99.99,,,-99.99,,2013-07-21 21:11:00,
2013-07-21 17:22:00,71.0,63.0,29.88,WSW,256,4.0,-999.0,77,-99.99,,,-99.99,,2013-07-21 21:22:00,
2013-07-21 17:32:00,69.0,64.0,29.88,WSW,245,4.0,-999.0,83,-99.99,,,-99.99,,2013-07-21 21:32:00,
2013-07-21 17:43:00,69.0,64.0,29.88,WSW,245,4.0,-999.0,83,-99.99,,,-99.99,,2013-07-21 21:43:00,
2013-07-21 17:52:00,69.0,64.0,29.88,SW,231,3.0,-999.0,85,-99.99,,,-99.99,,2013-07-21 21:52:00,
2013-07-21 18:01:00,68.0,63.0,29.88,West,273,4.0,-999.0,84,-99.99,,,-99.99,,2013-07-21 22:01:00,
2013-07-21 18:11:00,68.0,63.0,29.88,West,273,4.0,-999.0,84,-99.99,,,-99.99,,2013-07-21 22:11:00,
2013-07-21 18:22:00,68.0,63.0,29.88,SW,229,2.0,-999.0,85,-99.99,,,-99.99,,2013-07-21 22:22:00,
2013-07-21 18:32:00,67.0,63.0,29.88,West,265,4.0,-999.0,87,-99.99,,,-99.99,,2013-07-21 22:32:00,
2013-07-21 18:43:00,67.0,63.0,29.88,West,265,4.0,-999.0,87,-99.99,,,-99.99,,2013-07-21 22:43:00,
2013-07-21 18:52:00,67.0,64.0,29.87,SW,227,5.0,-999.0,89,-99.99,,,-99.99,,2013-07-21 22:52:00,
2013-07-21 19:02:00,67.0,64.0,29.86,WSW,253,5.0,-999.0,89,-99.99,,,-99.99,,2013-07-21 23:02:00,
2013-07-21 19:11:00,67.0,64.0,29.86,WSW,253,5.0,-999.0,89,-99.99,,,-99.99,,2013-07-21 23:11:00,
2013-07-21 19:22:00,66.0,63.0,29.87,WSW,239,3.0,-999.0,91,-99.99,,,-99.99,,2013-07-21 23:22:00,
2013-07-21 19:32:00,66.0,63.0,29.87,WSW,239,1.0,-999.0,90,-99.99,,,-99.99,,2013-07-21 23:32:00,
2013-07-21 19:43:00,66.0,63.0,29.87,WSW,239,1.0,-999.0,90,-99.99,,,-99.99,,2013-07-21 23:43:00,
2013-07-21 19:53:00,66.0,63.0,29.87,WSW,239,0.0,-999.0,91,-99.99,,,-99.99,,2013-07-21 23:53:00,
2013-07-21 20:01:00,65.0,62.0,29.87,WSW,239,0.0,-999.0,91,-99.99,,,-99.99,,2013-07-22 00:01:00,
2013-07-21 20:11:00,65.0,62.0,29.87,WSW,239,0.0,-999.0,91,-99.99,,,-99.99,,2013-07-22 00:11:00,
2013-07-21 20:22:00,64.0,62.0,29.87,East,88,3.0,-999.0,93,-99.99,,,-99.99,,2013-07-22 00:22:00,
2013-07-21 20:32:00,64.0,62.0,29.88,ESE,120,2.0,-999.0,93,-99.99,,,-99.99,,2013-07-22 00:32:00,
2013-07-21 20:42:00,64.0,62.0,29.88,ESE,120,2.0,-999.0,93,-99.99,,,-99.99,,2013-07-22 00:42:00,
2013-07-21 20:53:00,64.0,62.0,29.87,SE,130,2.0,-999.0,92,-99.99,,,-99.99,,2013-07-22 00:53:00,
2013-07-21 21:02:00,63.0,61.0,29.88,ESE,123,4.0,-999.0,92,-99.99,,,-99.99,,2013-07-22 01:02:00,
2013-07-21 21:12:00,63.0,61.0,29.88,ESE,123,4.0,-999.0,92,-99.99,,,-99.99,,2013-07-22 01:12:00,
2013-07-21 21:22:00,63.0,61.0,29.88,SE,124,3.0,-999.0,93,-99.99,,,-99.99,,2013-07-22 01:22:00,
2013-07-21 21:32:00,63.0,61.0,29.88,ESE,121,3.0,-999.0,92,-99.99,,,-99.99,,2013-07-22 01:32:00,
2013-07-21 21:42:00,63.0,61.0,29.88,ESE,121,3.0,-999.0,92,-99.99,,,-99.99,,2013-07-22 01:42:00,
2013-07-21 21:52:00,63.0,61.0,29.88,East,92,3.0,-999.0,93,-99.99,,,-99.99,,2013-07-22 01:52:00,
2013-07-21 22:02:00,63.0,61.0,29.89,East,99,3.0,-999.0,92,-99.99,,,-99.99,,2013-07-22 02:02:00,
2013-07-21 22:11:00,63.0,61.0,29.89,East,99,3.0,-999.0,92,-99.99,,,-99.99,,2013-07-22 02:11:00,
2013-07-21 22:22:00,62.0,59.0,29.89,South,189,3.0,-999.0,91,-99.99,,,-99.99,,2013-07-22 02:22:00,
2013-07-21 22:32:00,62.0,59.0,29.89,SE,136,3.0,-999.0,91,-99.99,,,-99.99,,2013-07-22 02:32:00,
2013-07-21 22:43:00,62.0,59.0,29.89,SE,136,3.0,-999.0,91,-99.99,,,-99.99,,2013-07-22 02:43:00,
2013-07-21 22:52:00,62.0,60.0,29.89,SSE,150,2.0,-999.0,92,-99.99,,,-99.99,,2013-07-22 02:52:00,
2013-07-21 23:01:00,62.0,60.0,29.90,SE,142,0.0,-999.0,93,-99.99,,,-99.99,,2013-07-22 03:01:00,
2013-07-21 23:12:00,62.0,60.0,29.90,SE,142,0.0,-999.0,93,-99.99,,,-99.99,,2013-07-22 03:12:00,
2013-07-21 23:22:00,62.0,59.0,29.90,South,181,2.0,-999.0,91,-99.99,,,-99.99,,2013-07-22 03:22:00,
2013-07-21 23:33:00,62.0,59.0,29.90,South,181,2.0,-999.0,91,-99.99,,,-99.99,,2013-07-22 03:33:00,
2013-07-21 23:43:00,62.0,58.0,29.90,SSW,207,3.0,-999.0,87,-99.99,,,-99.99,,2013-07-22 03:43:00,
2013-07-21 23:53:00,62.0,57.0,29.90,SSW,198,3.0,-999.0,84,-99.99,,,-99.99,,2013-07-22 03:53:00,